الصفحة الرئيسية
METAR-TAF:

METAR-TAF

مطار :

مطار صوفيا

صوفيا, بلغاريا

دائرة عرض: 42-39N, خط طول: 023-23E, ارتفاع: 586 متر

مراقبة الطقس الحالي

تاريخ ووقت الإصدار 30 دقيقة قبل الساعة 22:00UTC
ريح 5 عقدة من الشرق/الشمال الشرقي
درجة الحرارة 14°درجة مئوية
الرطوبة 58%
ضغط 1020 hPa
الرؤية 10 كم أو أكثر
غيوم متفرقة على ارتفاع 6800 قدم

METAR: LBSF 172200Z 06005KT 9999 SCT068 14/06 Q1020 NOSIG

زمن: 01:30 (22:30 UTC)

توقعات

تاريخ ووقت الإصدار 5ساعات و 30 دقيقة قبل الساعة 17:00UTC
التوقعات صالحة من17 الساعة 18 UTC إلى 18 الساعة 18 UTC
ريح 10 عقدة من الشرق
الرؤية 10 كم أو أكثر
غيوم متفرقة على ارتفاع 6000 قدم
أصبح
من 17 الساعة 20 UTC إلى 17 الساعة 22 UTC
ريح 4 عقدةمن اتجاهات متغيرة
مؤقت
من 18 الساعة 02 UTC إلى 18 الساعة 06 UTC
الرؤية: 3000 متر
غيوم متفرقة على ارتفاع 1000 قدم
غشاء
أصبح
من 18 الساعة 08 UTC إلى 18 الساعة 10 UTC
ريح 10 عقدة من الشرق
الرؤية 10 كم أو أكثر
الغيوم لا تقل 1500 م ولا وجود لمزنة ركامية السحاب الأسود

TAF: LBSF 171700Z 1718/1818 08010KT 9999 SCT060 BECMG 1720/1722 VRB04KT TEMPO 1802/1806 3000 BR SCT010 BECMG 1808/1810 08010KT CAVOK

أرصاد الطقس والتوقعات من أكثر من 4000 مطار (تقارير الطقس للمطار METAR والتنبؤ بالطقس بالمطارTAF).

المحطات المتاحة هي النقط الصفراء والحمراء على الخريطة.

حرك المؤشر فوق النقطة لمعرفة اسم المحطة.

ثم انقر لمعرفة أرصاد وتوقعات الطقس.

لتغيير الخارطة: اضغط على الأزرار الخضراء مع رمز الصليب الأسود للتكبير. على الزر الأخضر مع شرطة للتصغير، أو على الأسهم الخضراء للخرائط المجاورة.


METAR-TAF: